createdAt,value
2023-10-09T00:00:27.231Z,15.30
2023-10-09T00:02:55.919Z,15.40
2023-10-09T00:05:38.804Z,15.50
2023-10-09T00:08:10.664Z,15.60
2023-10-09T00:10:49.351Z,15.50
2023-10-09T00:13:19.708Z,15.60
2023-10-09T00:15:53.719Z,15.70
2023-10-09T00:18:30.350Z,15.60
2023-10-09T00:21:12.591Z,15.60
2023-10-09T00:23:42.728Z,15.50
2023-10-09T00:26:12.292Z,15.30
2023-10-09T00:28:52.070Z,15.20
2023-10-09T00:31:29.212Z,15.10
2023-10-09T00:34:02.517Z,15.20
2023-10-09T00:36:33.826Z,15.10
2023-10-09T00:39:13.266Z,15.20
2023-10-09T00:41:42.816Z,15.20
2023-10-09T00:44:12.206Z,15.20
2023-10-09T00:46:43.634Z,15.10
2023-10-09T00:49:12.354Z,15.20
2023-10-09T00:51:57.245Z,15.20
2023-10-09T00:54:29.855Z,15.10
2023-10-09T00:57:07.755Z,15.10
2023-10-09T00:59:39.478Z,15.20
2023-10-09T01:02:08.005Z,15.40
2023-10-09T01:04:41.919Z,15.60
2023-10-09T01:07:16.456Z,15.80
2023-10-09T01:09:46.380Z,15.80
2023-10-09T01:12:19.270Z,15.90
2023-10-09T01:14:53.721Z,15.80
2023-10-09T01:17:36.768Z,15.80
2023-10-09T01:20:17.546Z,15.50
2023-10-09T01:22:45.842Z,15.50
2023-10-09T01:25:17.071Z,15.20
2023-10-09T01:27:45.252Z,15.20
2023-10-09T01:30:15.398Z,15.10
2023-10-09T01:32:44.866Z,15.10
2023-10-09T01:35:21.758Z,15.30
2023-10-09T01:37:52.216Z,15.40
2023-10-09T01:40:29.213Z,15.20
2023-10-09T01:42:57.843Z,15.20
2023-10-09T01:45:29.065Z,15.20
2023-10-09T01:47:57.694Z,15.10
2023-10-09T01:50:32.167Z,15.00
2023-10-09T01:53:02.718Z,15.10
2023-10-09T01:55:35.345Z,15.30
2023-10-09T01:58:06.939Z,15.60
2023-10-09T02:00:42.942Z,15.80
2023-10-09T02:03:14.079Z,15.80
2023-10-09T02:05:44.404Z,15.80
2023-10-09T02:08:12.557Z,15.90
2023-10-09T02:10:48.672Z,16.00
2023-10-09T02:13:18.327Z,16.00
2023-10-09T02:16:00.186Z,16.00
2023-10-09T02:18:40.927Z,16.10
2023-10-09T02:21:16.566Z,16.10
2023-10-09T02:23:51.078Z,16.00
2023-10-09T02:26:26.463Z,15.90
2023-10-09T02:29:00.248Z,16.00
2023-10-09T02:31:37.185Z,15.80
2023-10-09T02:34:08.807Z,15.80
2023-10-09T02:36:39.497Z,15.80
2023-10-09T02:39:08.502Z,15.80
2023-10-09T02:41:46.008Z,15.80
2023-10-09T02:44:14.703Z,15.80
2023-10-09T02:46:45.236Z,15.90
2023-10-09T02:49:17.019Z,16.00
2023-10-09T02:51:49.417Z,16.10
2023-10-09T02:54:28.759Z,16.10
2023-10-09T02:57:07.047Z,16.00
2023-10-09T02:59:38.247Z,16.10
2023-10-09T03:02:06.616Z,16.10
2023-10-09T03:04:35.395Z,15.90
2023-10-09T03:07:04.768Z,15.80
2023-10-09T03:09:33.610Z,15.80
2023-10-09T03:12:06.836Z,15.90
2023-10-09T03:14:39.417Z,16.10
2023-10-09T03:17:12.235Z,16.10
2023-10-09T03:19:40.636Z,16.20
2023-10-09T03:22:11.373Z,16.50
2023-10-09T03:24:42.625Z,16.60
2023-10-09T03:27:12.525Z,16.70
2023-10-09T03:29:40.755Z,16.30
2023-10-09T03:32:10.110Z,15.70
2023-10-09T03:34:38.219Z,15.60
2023-10-09T03:37:07.414Z,15.80
2023-10-09T03:39:39.745Z,16.00
2023-10-09T03:42:20.282Z,16.10
2023-10-09T03:44:54.579Z,16.00
2023-10-09T03:47:24.476Z,15.80
2023-10-09T03:49:54.236Z,15.50
2023-10-09T03:52:26.986Z,15.30
2023-10-09T03:54:56.120Z,15.10
2023-10-09T03:57:25.835Z,15.10
2023-10-09T03:59:56.702Z,15.20
2023-10-09T04:02:25.675Z,15.50
2023-10-09T04:04:54.086Z,15.80
2023-10-09T04:07:22.721Z,16.00
2023-10-09T04:10:03.765Z,16.00
2023-10-09T04:12:32.447Z,15.60
2023-10-09T04:15:07.670Z,15.30
2023-10-09T04:17:36.870Z,15.30
2023-10-09T04:20:24.342Z,15.20
2023-10-09T04:22:52.787Z,15.30
2023-10-09T04:25:27.914Z,15.00
2023-10-09T04:28:09.819Z,14.80
2023-10-09T04:30:44.081Z,14.30
2023-10-09T04:33:29.610Z,14.00
2023-10-09T04:36:24.135Z,14.20
2023-10-09T04:39:19.897Z,14.20
2023-10-09T04:42:00.537Z,14.50
2023-10-09T04:44:37.088Z,14.80
2023-10-09T04:47:26.642Z,14.80
2023-10-09T04:50:03.426Z,14.60
2023-10-09T04:52:49.078Z,14.30
2023-10-09T04:55:20.074Z,14.00
2023-10-09T04:58:02.583Z,13.60
2023-10-09T05:01:03.081Z,13.30
2023-10-09T05:03:44.413Z,13.30
2023-10-09T05:06:22.981Z,13.10
2023-10-09T05:08:50.826Z,13.20
2023-10-09T05:11:33.160Z,13.20
2023-10-09T05:14:12.719Z,13.30
2023-10-09T05:16:55.143Z,13.40
2023-10-09T05:19:34.972Z,13.40
2023-10-09T05:22:08.870Z,13.40
2023-10-09T05:24:46.961Z,13.50
2023-10-09T05:27:20.271Z,13.60
2023-10-09T05:30:00.557Z,13.80
2023-10-09T05:32:36.162Z,13.90
2023-10-09T05:35:16.855Z,14.10
2023-10-09T05:37:44.536Z,14.20
2023-10-09T05:40:24.407Z,14.10
2023-10-09T05:43:00.907Z,14.20
2023-10-09T05:45:53.034Z,14.10
2023-10-09T05:48:55.697Z,14.20
2023-10-09T05:51:42.187Z,14.10
2023-10-09T05:54:27.824Z,14.10
2023-10-09T05:57:41.979Z,14.20
2023-10-09T06:00:29.521Z,14.20
2023-10-09T06:03:14.928Z,14.40
2023-10-09T06:05:43.447Z,14.90
2023-10-09T06:08:14.318Z,15.20
2023-10-09T06:10:44.965Z,15.20
2023-10-09T06:13:27.022Z,15.10
2023-10-09T06:16:10.936Z,15.30
2023-10-09T06:18:44.452Z,15.70
2023-10-09T06:21:40.682Z,16.00
2023-10-09T06:24:11.075Z,16.20
2023-10-09T06:26:42.458Z,16.30
2023-10-09T06:29:17.801Z,16.40
2023-10-09T06:32:00.529Z,16.00
2023-10-09T06:34:45.866Z,16.00
2023-10-09T06:37:35.652Z,15.80
2023-10-09T06:40:31.736Z,15.80
2023-10-09T06:43:05.233Z,15.80
2023-10-09T06:45:45.108Z,15.40
2023-10-09T06:48:27.750Z,15.30
2023-10-09T06:51:05.010Z,15.20
2023-10-09T06:53:56.340Z,15.10
2023-10-09T06:56:46.239Z,15.10
2023-10-09T06:59:18.487Z,15.00
2023-10-09T07:01:47.638Z,15.00
2023-10-09T07:04:42.429Z,14.90
2023-10-09T07:07:14.387Z,14.90
2023-10-09T07:09:44.754Z,14.90
2023-10-09T07:12:21.469Z,14.90
2023-10-09T07:15:03.959Z,15.10
2023-10-09T07:17:46.192Z,15.20
2023-10-09T07:20:16.532Z,15.30
2023-10-09T07:23:14.619Z,15.40
2023-10-09T07:25:43.593Z,15.40
2023-10-09T07:28:37.800Z,15.40
2023-10-09T07:31:10.146Z,15.50
2023-10-09T07:36:39.470Z,15.60
2023-10-09T07:39:25.125Z,15.60
2023-10-09T07:42:03.091Z,15.70
2023-10-09T07:44:38.940Z,15.70
2023-10-09T07:47:19.525Z,15.80
2023-10-09T07:49:55.242Z,15.90
2023-10-09T07:52:27.173Z,16.00
2023-10-09T07:55:04.750Z,16.10
2023-10-09T07:57:40.714Z,16.20
2023-10-09T08:00:34.709Z,16.30
2023-10-09T08:03:04.437Z,16.40
2023-10-09T08:05:35.412Z,16.60
2023-10-09T08:08:40.658Z,16.70
2023-10-09T08:11:29.150Z,16.80
2023-10-09T08:14:02.245Z,16.90
2023-10-09T08:16:37.638Z,16.90
2023-10-09T08:19:31.066Z,17.10
2023-10-09T08:22:17.236Z,17.30
2023-10-09T08:24:56.827Z,17.60
2023-10-09T08:27:48.068Z,17.60
2023-10-09T08:30:29.622Z,17.70
2023-10-09T08:35:35.404Z,17.80
2023-10-09T08:38:24.939Z,17.70
2023-10-09T08:40:59.205Z,17.60
2023-10-09T08:43:29.960Z,17.60
2023-10-09T08:46:02.222Z,17.60
2023-10-09T08:48:33.043Z,17.60
2023-10-09T08:51:07.438Z,17.60
2023-10-09T08:53:35.554Z,17.60
2023-10-09T08:56:05.681Z,17.70
2023-10-09T08:58:38.155Z,17.80
2023-10-09T09:01:06.567Z,17.80
2023-10-09T09:03:41.937Z,17.90
2023-10-09T09:06:09.944Z,17.90
2023-10-09T09:08:38.525Z,18.00
2023-10-09T09:11:14.091Z,18.00
2023-10-09T09:13:49.707Z,18.10
2023-10-09T09:16:21.314Z,18.20
2023-10-09T09:18:58.209Z,18.50
2023-10-09T09:21:28.627Z,18.70
2023-10-09T09:24:00.113Z,18.80
2023-10-09T09:26:39.381Z,18.80
2023-10-09T09:29:09.747Z,18.90
2023-10-09T09:31:39.918Z,18.90
2023-10-09T09:34:17.705Z,18.90
2023-10-09T09:36:55.720Z,19.10
2023-10-09T09:42:15.841Z,19.30
2023-10-09T09:44:46.104Z,19.40
2023-10-09T09:47:24.976Z,19.50
2023-10-09T09:50:00.822Z,19.60
2023-10-09T09:52:39.579Z,19.70
2023-10-09T09:55:15.623Z,19.80
2023-10-09T09:57:52.459Z,20.00
2023-10-09T10:00:30.526Z,20.10
2023-10-09T10:03:11.141Z,20.10
2023-10-09T10:05:41.259Z,20.20
2023-10-09T10:08:13.953Z,20.30
2023-10-09T10:10:53.910Z,20.20
2023-10-09T10:13:59.732Z,20.30
2023-10-09T10:16:35.662Z,20.30
2023-10-09T10:19:23.814Z,20.30
2023-10-09T10:21:53.749Z,20.20
2023-10-09T10:24:58.579Z,20.20
2023-10-09T10:27:28.546Z,20.40
2023-10-09T10:30:38.219Z,20.50
2023-10-09T10:33:13.728Z,20.70
2023-10-09T10:35:46.683Z,21.10
2023-10-09T10:38:37.658Z,21.20
2023-10-09T10:41:13.759Z,21.10
2023-10-09T10:44:06.143Z,21.10
2023-10-09T10:46:43.501Z,21.00
2023-10-09T10:49:21.622Z,21.00
2023-10-09T10:51:50.568Z,21.00
2023-10-09T10:54:47.144Z,20.90
2023-10-09T10:57:31.329Z,20.80
2023-10-09T11:00:16.032Z,20.80
2023-10-09T11:02:49.470Z,20.90
2023-10-09T11:05:24.831Z,20.80
2023-10-09T11:07:57.612Z,20.80
2023-10-09T11:10:32.666Z,20.70
2023-10-09T11:13:29.601Z,20.70
2023-10-09T11:16:15.570Z,20.70
2023-10-09T11:18:47.196Z,20.70
2023-10-09T11:21:32.272Z,20.80
2023-10-09T11:24:00.451Z,21.00
2023-10-09T11:26:30.198Z,20.90
2023-10-09T11:29:14.902Z,20.90
2023-10-09T11:31:46.778Z,21.00
2023-10-09T11:34:30.216Z,21.10
2023-10-09T11:37:03.166Z,21.20
2023-10-09T11:39:52.988Z,21.30
2023-10-09T11:42:37.113Z,21.40
2023-10-09T11:45:20.412Z,21.60
2023-10-09T11:47:58.062Z,21.70
2023-10-09T11:50:45.155Z,21.90
2023-10-09T11:53:34.523Z,22.10
2023-10-09T11:56:03.970Z,22.30
2023-10-09T11:58:32.925Z,22.40
2023-10-09T12:01:07.112Z,22.70
2023-10-09T12:03:35.407Z,22.80
2023-10-09T12:06:06.671Z,22.90
2023-10-09T12:08:35.761Z,23.00
2023-10-09T12:11:09.265Z,23.10
2023-10-09T12:13:39.125Z,23.40
2023-10-09T12:16:10.201Z,23.50
2023-10-09T12:18:40.438Z,23.40
2023-10-09T12:21:16.726Z,23.20
2023-10-09T12:23:48.555Z,23.20
2023-10-09T12:26:16.836Z,23.10
2023-10-09T12:28:47.312Z,23.00
2023-10-09T12:31:16.439Z,22.90
2023-10-09T12:33:44.804Z,22.90
2023-10-09T12:36:21.192Z,23.20
2023-10-09T12:38:51.723Z,23.40
2023-10-09T12:41:26.457Z,23.60
2023-10-09T12:43:55.546Z,23.60
2023-10-09T12:46:24.590Z,23.60
2023-10-09T12:48:55.244Z,23.70
2023-10-09T12:51:30.868Z,23.80
2023-10-09T12:53:59.482Z,24.00
2023-10-09T12:56:33.634Z,24.10
2023-10-09T12:59:02.881Z,24.10
2023-10-09T13:01:33.159Z,24.20
2023-10-09T13:04:01.924Z,24.20
2023-10-09T13:06:31.519Z,24.30
2023-10-09T13:09:01.093Z,24.50
2023-10-09T13:11:29.479Z,24.40
2023-10-09T13:14:03.860Z,24.40
2023-10-09T13:16:33.027Z,24.40
2023-10-09T13:19:08.777Z,24.60
2023-10-09T13:21:40.179Z,24.60
2023-10-09T13:24:14.190Z,24.60
2023-10-09T13:26:44.468Z,24.70
2023-10-09T13:29:13.275Z,24.80
2023-10-09T13:31:47.713Z,24.80
2023-10-09T13:34:17.254Z,24.90
2023-10-09T13:36:51.946Z,24.90
2023-10-09T13:39:24.862Z,24.80
2023-10-09T13:41:59.052Z,24.70
2023-10-09T13:44:28.780Z,24.70
2023-10-09T13:46:57.906Z,24.70
2023-10-09T13:49:30.792Z,24.60
2023-10-09T13:52:02.363Z,24.50
2023-10-09T13:54:40.678Z,24.50
2023-10-09T13:57:11.598Z,24.40
2023-10-09T13:59:44.236Z,24.40
2023-10-09T14:02:18.770Z,24.40
2023-10-09T14:04:48.470Z,24.50
2023-10-09T14:07:19.166Z,24.40
2023-10-09T14:09:56.323Z,24.30
2023-10-09T14:12:26.152Z,24.20
2023-10-09T14:14:55.727Z,24.20
2023-10-09T14:17:26.661Z,24.10
2023-10-09T14:19:57.720Z,24.10
2023-10-09T14:22:27.553Z,24.10
2023-10-09T14:24:57.395Z,24.10
2023-10-09T14:27:28.301Z,24.20
2023-10-09T14:30:00.085Z,24.20
2023-10-09T14:32:30.688Z,24.30
2023-10-09T14:35:02.039Z,24.50
2023-10-09T14:37:32.437Z,24.60
2023-10-09T14:40:00.805Z,24.60
2023-10-09T14:42:30.156Z,24.50
2023-10-09T14:44:58.435Z,24.40
2023-10-09T14:47:27.084Z,24.40
2023-10-09T14:49:57.643Z,24.30
2023-10-09T14:52:28.492Z,24.20
2023-10-09T14:54:59.359Z,24.20
2023-10-09T14:57:27.341Z,24.20
2023-10-09T14:59:55.589Z,24.10
2023-10-09T15:02:24.964Z,24.10
2023-10-09T15:04:54.035Z,24.10
2023-10-09T15:07:39.180Z,24.10
2023-10-09T15:10:11.234Z,24.10
2023-10-09T15:12:43.959Z,23.90
2023-10-09T15:15:14.717Z,23.90
2023-10-09T15:17:45.057Z,23.90
2023-10-09T15:20:15.646Z,23.90
2023-10-09T15:22:47.297Z,23.90
2023-10-09T15:25:18.394Z,23.90
2023-10-09T15:27:46.606Z,23.90
2023-10-09T15:30:15.852Z,23.90
2023-10-09T15:32:44.384Z,23.80
2023-10-09T15:35:14.680Z,23.80
2023-10-09T15:37:44.093Z,23.80
2023-10-09T15:40:15.546Z,23.70
2023-10-09T15:42:50.612Z,23.70
2023-10-09T15:45:22.404Z,23.60
2023-10-09T15:47:52.221Z,23.60
2023-10-09T15:50:21.302Z,23.60
2023-10-09T15:52:52.565Z,23.50
2023-10-09T15:55:25.324Z,23.50
2023-10-09T15:57:55.979Z,23.50
2023-10-09T16:00:29.673Z,23.40
2023-10-09T16:03:01.963Z,23.30
2023-10-09T16:05:31.737Z,23.30
2023-10-09T16:08:01.328Z,23.20
2023-10-09T16:10:29.848Z,23.40
2023-10-09T16:13:01.283Z,23.50
2023-10-09T16:15:30.107Z,23.50
2023-10-09T16:18:04.316Z,23.50
2023-10-09T16:20:33.463Z,23.60
2023-10-09T16:23:05.406Z,23.40
2023-10-09T16:25:35.060Z,23.50
2023-10-09T16:28:05.980Z,23.80
2023-10-09T16:30:34.213Z,23.70
2023-10-09T16:33:02.549Z,23.60
2023-10-09T16:35:29.948Z,23.50
2023-10-09T16:37:58.949Z,23.50
2023-10-09T16:40:27.826Z,23.10
2023-10-09T16:42:55.836Z,22.90
2023-10-09T16:45:27.382Z,22.70
2023-10-09T16:47:56.155Z,22.70
2023-10-09T16:50:28.789Z,22.80
2023-10-09T16:52:56.965Z,22.80
2023-10-09T16:55:25.836Z,22.90
2023-10-09T16:57:54.234Z,22.80
2023-10-09T17:00:30.547Z,22.60
2023-10-09T17:03:00.922Z,22.50
2023-10-09T17:05:33.844Z,22.60
2023-10-09T17:08:02.379Z,22.50
2023-10-09T17:10:36.088Z,22.50
2023-10-09T17:13:08.165Z,22.30
2023-10-09T17:15:36.907Z,21.90
2023-10-09T17:18:08.066Z,21.80
2023-10-09T17:20:41.900Z,21.90
2023-10-09T17:23:12.349Z,21.80
2023-10-09T17:25:45.473Z,21.90
2023-10-09T17:28:18.356Z,21.90
2023-10-09T17:30:49.776Z,21.70
2023-10-09T17:33:20.551Z,21.40
2023-10-09T17:35:49.571Z,21.50
2023-10-09T17:38:19.423Z,21.60
2023-10-09T17:40:52.284Z,21.70
2023-10-09T17:43:21.510Z,21.70
2023-10-09T17:45:54.952Z,21.40
2023-10-09T17:48:25.303Z,21.00
2023-10-09T17:50:54.358Z,20.60
2023-10-09T17:53:22.516Z,20.60
2023-10-09T17:55:54.627Z,20.90
2023-10-09T17:58:24.820Z,21.00
2023-10-09T18:00:56.140Z,21.00
2023-10-09T18:03:28.664Z,21.10
2023-10-09T18:05:57.273Z,20.90
2023-10-09T18:08:26.561Z,20.30
2023-10-09T18:10:57.892Z,20.00
2023-10-09T18:13:27.033Z,19.90
2023-10-09T18:16:08.671Z,19.90
2023-10-09T18:18:38.794Z,20.20
2023-10-09T18:21:08.745Z,20.20
2023-10-09T18:23:45.734Z,20.20
2023-10-09T18:26:15.496Z,20.30
2023-10-09T18:28:45.930Z,20.60
2023-10-09T18:31:15.904Z,20.70
2023-10-09T18:33:47.947Z,20.40
2023-10-09T18:36:18.877Z,20.30
2023-10-09T18:41:45.709Z,19.90
2023-10-09T18:44:13.974Z,19.70
2023-10-09T18:46:44.469Z,19.60
2023-10-09T18:49:14.225Z,19.40
2023-10-09T18:51:42.708Z,19.40
2023-10-09T18:54:11.998Z,19.40
2023-10-09T18:56:40.445Z,19.60
2023-10-09T18:59:09.799Z,19.70
2023-10-09T19:01:38.427Z,19.70
2023-10-09T19:04:09.163Z,19.80
2023-10-09T19:06:39.344Z,19.90
2023-10-09T19:09:07.963Z,20.00
2023-10-09T19:11:40.273Z,20.00
2023-10-09T19:14:13.308Z,19.80
2023-10-09T19:16:56.880Z,19.80
2023-10-09T19:19:45.221Z,19.90
2023-10-09T19:22:17.837Z,19.90
2023-10-09T19:24:55.292Z,20.00
2023-10-09T19:27:34.242Z,20.00
2023-10-09T19:30:07.715Z,19.80
2023-10-09T19:32:48.648Z,19.50
2023-10-09T19:35:24.093Z,19.50
2023-10-09T19:38:03.546Z,19.80
2023-10-09T19:40:48.881Z,19.90
2023-10-09T19:43:20.911Z,19.90
2023-10-09T19:46:01.863Z,19.60
2023-10-09T19:48:38.129Z,19.20
2023-10-09T19:51:21.164Z,18.80
2023-10-09T19:53:54.257Z,18.70
2023-10-09T19:56:23.530Z,18.90
2023-10-09T19:58:53.908Z,19.10
2023-10-09T20:01:24.395Z,19.30
2023-10-09T20:03:54.997Z,19.50
2023-10-09T20:06:24.008Z,19.60
2023-10-09T20:08:55.971Z,19.50
2023-10-09T20:11:24.781Z,19.00
2023-10-09T20:13:52.985Z,18.60
2023-10-09T20:16:21.225Z,18.70
2023-10-09T20:18:50.879Z,18.80
2023-10-09T20:21:28.122Z,18.80
2023-10-09T20:23:57.518Z,18.70
2023-10-09T20:26:33.044Z,18.80
2023-10-09T20:29:04.422Z,18.90
2023-10-09T20:31:38.415Z,18.90
2023-10-09T20:34:10.260Z,18.90
2023-10-09T20:36:42.024Z,18.80
2023-10-09T20:39:12.069Z,18.40
2023-10-09T20:41:40.454Z,18.10
2023-10-09T20:44:11.675Z,18.20
2023-10-09T20:46:42.370Z,18.10
2023-10-09T20:49:10.868Z,17.80
2023-10-09T20:51:54.352Z,17.80
2023-10-09T20:54:27.319Z,17.50
2023-10-09T20:56:55.566Z,17.40
2023-10-09T20:59:24.506Z,17.40
2023-10-09T21:01:53.620Z,17.50
2023-10-09T21:04:21.860Z,17.60
2023-10-09T21:06:50.591Z,17.70
2023-10-09T21:09:18.647Z,17.70
2023-10-09T21:11:48.086Z,17.60
2023-10-09T21:14:18.040Z,17.60
2023-10-09T21:16:47.218Z,17.40
2023-10-09T21:19:15.562Z,17.40
2023-10-09T21:21:44.266Z,17.60
2023-10-09T21:24:14.864Z,17.70
2023-10-09T21:26:42.981Z,17.40
2023-10-09T21:29:12.752Z,17.30
2023-10-09T21:31:41.696Z,17.20
2023-10-09T21:34:11.557Z,17.20
2023-10-09T21:36:39.608Z,17.20
2023-10-09T21:39:09.642Z,17.20
2023-10-09T21:41:38.468Z,17.20
2023-10-09T21:44:08.677Z,16.90
2023-10-09T21:46:38.147Z,16.90
2023-10-09T21:49:08.639Z,17.00
2023-10-09T21:51:38.324Z,17.10
2023-10-09T21:54:07.153Z,17.10
2023-10-09T21:56:35.659Z,17.00
2023-10-09T21:59:05.432Z,17.20
2023-10-09T22:01:35.035Z,17.40
2023-10-09T22:04:06.647Z,17.50
2023-10-09T22:06:35.473Z,17.70
2023-10-09T22:09:03.537Z,17.80
2023-10-09T22:11:31.584Z,17.80
2023-10-09T22:14:00.274Z,17.80
2023-10-09T22:16:28.691Z,17.70
2023-10-09T22:19:13.082Z,17.70
2023-10-09T22:21:48.453Z,17.80
2023-10-09T22:24:19.229Z,17.80
2023-10-09T22:26:52.222Z,17.60
2023-10-09T22:29:20.796Z,17.30
2023-10-09T22:31:49.107Z,17.00
2023-10-09T22:34:20.779Z,17.00
2023-10-09T22:36:54.973Z,17.00
2023-10-09T22:39:26.014Z,17.00
2023-10-09T22:41:55.464Z,17.00
2023-10-09T22:44:26.083Z,17.00
2023-10-09T22:46:56.708Z,17.20
2023-10-09T22:49:29.368Z,17.00
2023-10-09T22:51:58.797Z,16.70
2023-10-09T22:54:35.274Z,16.70
2023-10-09T22:57:06.481Z,16.70
2023-10-09T22:59:44.791Z,16.50
2023-10-09T23:02:22.466Z,16.50
2023-10-09T23:04:56.757Z,16.50
2023-10-09T23:07:26.501Z,16.60
2023-10-09T23:09:55.976Z,16.50
2023-10-09T23:12:35.813Z,16.80
2023-10-09T23:15:10.781Z,16.60
2023-10-09T23:17:49.208Z,16.50
2023-10-09T23:20:18.563Z,16.40
2023-10-09T23:22:50.388Z,16.40
2023-10-09T23:25:28.849Z,16.30
2023-10-09T23:28:15.259Z,16.20
2023-10-09T23:30:45.269Z,16.20
2023-10-09T23:33:21.769Z,16.30
2023-10-09T23:35:56.568Z,16.60
2023-10-09T23:38:35.042Z,16.70
2023-10-09T23:41:10.739Z,16.80
2023-10-09T23:43:45.725Z,17.00
2023-10-09T23:46:17.953Z,16.80
2023-10-09T23:48:46.692Z,16.60
2023-10-09T23:51:19.659Z,16.50
2023-10-09T23:53:53.205Z,16.70
2023-10-09T23:56:35.824Z,16.60
2023-10-09T23:59:06.270Z,16.40
